Otter Creek, Florida
Current Conditions -  °F | °C
As of 4:55 PM on Tuesday 25 Nov 2014 (Local Time) from KCGC Reporting Station
Thunderstorm Thunderstorm  
Wind Chill: 68°   Ceiling: 500
Heat Index: 68°   Visibility: 10mi
Dew Point: 66°   Wind: 7mph
Humidity: 94%   Direction: 90°E
Pressure: 29.9"   Gusts: NA
Location:  29.32°N, 82.77°W
Report Text: KCGC 252155Z AUTO 09006KT 10SM TSRA OVC005 20/19 A2990 RMK AO2 LTG DSNT ALQS P0011
Loading
Personal Weather Stations






























Interactive Weather Map New forecast layout! Learn more

10-Day Weather Forecast

Advertisements
Track Severe Weather on mobile